Time;durP1;ratioP1;P1;durP2;ratioP2;P2;SDS_P1;SDS_P2;PMS_P1;PMS_P2;Temp;Humidity;BMP_temperature;BMP_pressure;BME280_temperature;BME280_humidity;BME280_pressure;Samples;Min_cycle;Max_cycle;Signal;HPM_P1;HPM_P2
2021/05/26 00:00:25;;;;;;;2.22;0.43;;;10.90;71.60;;;;;;5026905;28;19955;-66
2021/05/26 00:02:51;;;;;;;;;;;10.90;71.90;;;;;;5025506;28;20398;-68
2021/05/26 00:05:16;;;;;;;1.30;0.30;;;10.80;71.50;;;;;;5026362;28;19916;-67
2021/05/26 00:07:42;;;;;;;;;;;10.80;71.40;;;;;;5027099;28;20117;-67
2021/05/26 00:10:09;;;;;;;1.23;0.43;;;10.80;70.90;;;;;;5026390;28;19920;-68
2021/05/26 00:12:35;;;;;;;2.60;0.40;;;10.80;70.20;;;;;;5026412;28;20036;-67
2021/05/26 00:15:01;;;;;;;;;;;10.80;70.10;;;;;;5026994;28;20018;-68
2021/05/26 00:17:28;;;;;;;6.75;0.47;;;10.80;69.10;;;;;;5026326;28;19912;-66
2021/05/26 00:19:54;;;;;;;2.47;0.50;;;10.80;69.30;;;;;;5026584;28;20052;-67
2021/05/26 00:22:19;;;;;;;;;;;10.90;68.70;;;;;;5026907;28;20030;-67
2021/05/26 00:24:45;;;;;;;3.00;0.40;;;10.90;68.50;;;;;;5026171;28;19909;-67
2021/05/26 00:27:10;;;;;;;;;;;10.90;68.40;;;;;;5026845;28;20036;-68
2021/05/26 00:29:36;;;;;;;2.92;0.40;;;11.00;68.20;;;;;;5026355;28;19979;-68
2021/05/26 00:32:02;;;;;;;;;;;11.00;68.10;;;;;;5026143;28;20068;-68
2021/05/26 00:34:27;;;;;;;1.50;0.30;;;11.00;68.00;;;;;;5026487;28;19912;-67
2021/05/26 00:36:53;;;;;;;;;;;11.00;67.80;;;;;;5026392;28;20041;-67
2021/05/26 00:39:18;;;;;;;1.15;0.40;;;11.00;67.70;;;;;;5025214;28;19909;-67
2021/05/26 00:41:44;;;;;;;;;;;11.00;68.00;;;;;;5026346;28;20025;-67
2021/05/26 00:44:14;;;;;;;4.18;0.73;;;11.00;68.50;;;;;;5026233;28;19909;-67
2021/05/26 00:46:45;;;;;;;4.38;0.40;;;11.00;68.50;;;;;;5025956;28;20021;-67
2021/05/26 00:49:11;;;;;;;6.22;0.38;;;11.00;68.70;;;;;;5026054;28;20640;-67
2021/05/26 00:51:37;;;;;;;6.22;0.43;;;11.00;69.00;;;;;;5026324;28;20477;-68
2021/05/26 00:54:03;;;;;;;;;;;11.00;69.50;;;;;;5026398;28;20507;-68
2021/05/26 00:56:29;;;;;;;2.37;0.40;;;11.00;70.00;;;;;;5024664;28;20020;-67
2021/05/26 00:58:55;;;;;;;5.03;0.73;;;10.90;70.30;;;;;;5026005;28;20033;-68
2021/05/26 01:01:21;;;;;;;;;;;10.80;71.00;;;;;;5026351;28;20103;-68
2021/05/26 01:03:46;;;;;;;1.83;0.40;;;10.70;71.40;;;;;;5025661;28;19909;-68
2021/05/26 01:06:12;;;;;;;;;;;10.70;71.70;;;;;;5026668;28;20026;-69
2021/05/26 01:08:37;;;;;;;2.50;0.40;;;10.70;71.40;;;;;;5025723;28;19909;-68
2021/05/26 01:11:06;;;;;;;;;;;10.60;71.00;;;;;;5025905;28;20063;-68
2021/05/26 01:13:32;;;;;;;2.75;0.60;;;10.60;71.40;;;;;;5024975;28;19981;-68
2021/05/26 01:15:58;;;;;;;5.53;0.63;;;10.60;71.40;;;;;;5026270;28;20224;-67
2021/05/26 01:18:24;;;;;;;;;;;10.60;71.60;;;;;;5026425;28;20052;-68
2021/05/26 01:20:51;;;;;;;4.63;1.05;;;10.60;71.00;;;;;;5025708;28;19905;-68
2021/05/26 01:23:17;;;;;;;3.30;0.70;;;10.60;70.60;;;;;;5025624;28;20026;-67
2021/05/26 01:25:45;;;;;;;1.17;0.32;;;10.50;70.80;;;;;;5025206;28;20107;-67
2021/05/26 01:28:11;;;;;;;2.22;0.30;;;10.50;70.20;;;;;;5025655;28;20096;-67
2021/05/26 01:30:37;;;;;;;;;;;10.50;69.50;;;;;;5025825;28;20528;-68
2021/05/26 01:33:03;;;;;;;2.40;0.40;;;10.50;69.00;;;;;;5025514;28;19913;-68
2021/05/26 01:35:28;;;;;;;;;;;10.50;69.60;;;;;;5026537;28;20087;-68
2021/05/26 01:37:54;;;;;;;3.60;0.85;;;10.50;69.20;;;;;;5025408;28;20554;-68
2021/05/26 01:40:19;;;;;;;;;;;10.40;69.60;;;;;;5025837;28;20026;-68
2021/05/26 01:42:45;;;;;;;2.60;0.25;;;10.40;70.60;;;;;;5025746;28;20377;-67
2021/05/26 01:45:13;;;;;;;2.28;0.47;;;10.30;70.80;;;;;;5027695;28;20047;-68
2021/05/26 01:47:38;;;;;;;2.53;0.38;;;10.20;71.40;;;;;;5029661;28;20025;-67
2021/05/26 01:50:05;;;;;;;;;;;10.10;70.90;;;;;;5028647;28;20034;-67
2021/05/26 01:52:32;;;;;;;2.33;0.60;;;10.10;71.30;;;;;;5028996;28;20373;-67
2021/05/26 01:54:57;;;;;;;0.75;0.30;;;10.10;71.20;;;;;;5028932;28;20390;-67
2021/05/26 01:57:23;;;;;;;;;;;10.00;72.00;;;;;;5029291;28;20037;-67
2021/05/26 01:59:49;;;;;;;1.20;0.40;;;9.90;73.20;;;;;;5029315;28;19906;-68
2021/05/26 02:02:14;;;;;;;;;;;9.90;73.60;;;;;;5029203;28;20025;-67
2021/05/26 02:04:40;;;;;;;1.70;0.30;;;9.90;72.50;;;;;;5028539;28;19992;-67
2021/05/26 02:07:11;;;;;;;;;;;9.90;72.10;;;;;;5029200;28;20040;-68
2021/05/26 02:09:38;;;;;;;1.55;0.30;;;9.90;71.50;;;;;;5028624;28;20361;-68
2021/05/26 02:12:23;;;;;;;2.65;0.50;;;10.00;70.50;;;;;;5027433;28;20091;-67
2021/05/26 02:14:53;;;;;;;3.00;0.73;;;10.10;69.90;;;;;;5028820;28;20071;-68
2021/05/26 02:17:19;;;;;;;2.90;0.43;;;10.30;68.50;;;;;;5029036;28;20025;-68
2021/05/26 02:19:45;;;;;;;2.17;0.50;;;10.40;68.10;;;;;;5028811;28;20049;-68
2021/05/26 02:22:11;;;;;;;;;;;10.40;68.10;;;;;;5028800;28;20443;-68
2021/05/26 02:24:37;;;;;;;1.48;0.32;;;10.50;67.60;;;;;;5027953;28;19909;-68
2021/05/26 02:27:02;;;;;;;;;;;10.50;67.80;;;;;;5029088;28;20071;-68
2021/05/26 02:29:28;;;;;;;5.28;0.40;;;10.50;68.00;;;;;;5028549;28;19928;-68
2021/05/26 02:31:54;;;;;;;;;;;10.50;68.20;;;;;;5028721;28;20041;-67
2021/05/26 02:34:20;;;;;;;3.72;0.63;;;10.40;69.00;;;;;;5028735;28;20015;-68
2021/05/26 02:36:46;;;;;;;;;;;10.30;69.50;;;;;;5028757;28;20748;-67
2021/05/26 02:39:12;;;;;;;3.40;0.60;;;10.30;70.30;;;;;;5028107;28;20520;-68
2021/05/26 02:41:38;;;;;;;2.38;0.60;;;10.10;71.00;;;;;;5028450;28;20033;-67
2021/05/26 02:44:03;;;;;;;;;;;10.10;71.80;;;;;;5027390;28;20490;-68
2021/05/26 02:46:30;;;;;;;1.33;0.30;;;10.00;72.50;;;;;;5028578;28;19916;-68
2021/05/26 02:48:55;;;;;;;1.15;0.25;;;9.90;72.90;;;;;;5027798;28;20071;-68
2021/05/26 02:51:21;;;;;;;;;;;9.80;73.30;;;;;;5028617;28;20521;-66
2021/05/26 02:53:47;;;;;;;2.17;0.40;;;9.70;74.00;;;;;;5026398;28;19905;-67
2021/05/26 02:56:13;;;;;;;2.95;0.40;;;9.70;74.10;;;;;;5027143;28;20112;-68
2021/05/26 02:58:40;;;;;;;1.92;0.45;;;9.60;74.20;;;;;;5026574;28;20033;-68
2021/05/26 03:01:06;;;;;;;1.52;0.30;;;9.50;74.70;;;;;;5028131;28;20037;-68
2021/05/26 03:03:31;;;;;;;;;;;9.50;75.40;;;;;;5028173;28;20041;-68
2021/05/26 03:05:57;;;;;;;1.77;0.30;;;9.40;76.30;;;;;;5026565;28;19909;-69
2021/05/26 03:08:22;;;;;;;;;;;9.40;76.20;;;;;;5027793;28;20029;-68
2021/05/26 03:10:49;;;;;;;5.47;0.30;;;9.30;76.40;;;;;;5026351;28;19917;-68
2021/05/26 03:13:14;;;;;;;0.88;0.40;;;9.30;76.30;;;;;;5027870;28;20055;-69
2021/05/26 03:15:40;;;;;;;;;;;9.30;76.30;;;;;;5027953;28;20029;-68
2021/05/26 03:18:06;;;;;;;4.90;0.40;;;9.30;77.10;;;;;;5027879;28;19980;-67
2021/05/26 03:20:32;;;;;;;;;;;9.20;77.90;;;;;;5027126;28;20434;-68
2021/05/26 03:22:58;;;;;;;2.50;0.60;;;9.20;78.70;;;;;;5026895;28;19913;-68
2021/05/26 03:25:24;;;;;;;3.53;0.98;;;9.20;79.10;;;;;;5026233;28;20087;-68
2021/05/26 03:27:50;;;;;;;9.27;0.70;;;9.10;79.50;;;;;;5026993;28;20394;-68
2021/05/26 03:30:16;;;;;;;;;;;9.10;80.10;;;;;;5028060;28;20044;-68
2021/05/26 03:32:43;;;;;;;3.47;0.70;;;9.00;81.50;;;;;;5027422;28;19912;-68
2021/05/26 03:35:11;;;;;;;9.50;0.80;;;9.00;81.50;;;;;;5027219;28;20017;-68
2021/05/26 03:37:37;;;;;;;1.92;0.60;;;8.90;82.40;;;;;;5027139;28;20442;-67
2021/05/26 03:40:08;;;;;;;3.30;0.60;;;8.90;83.60;;;;;;5026855;28;20501;-68
2021/05/26 03:42:33;;;;;;;5.45;1.00;;;8.80;83.60;;;;;;5027417;28;20029;-68
2021/05/26 03:44:59;;;;;;;;;;;8.90;83.90;;;;;;5027608;28;20028;-69
2021/05/26 03:47:25;;;;;;;1.67;0.73;;;8.80;83.80;;;;;;5026894;28;20384;-68
2021/05/26 03:49:50;;;;;;;;;;;8.90;83.80;;;;;;5027181;28;20473;-68
2021/05/26 03:52:16;;;;;;;2.25;0.77;;;9.00;83.00;;;;;;5026942;28;19920;-68
2021/05/26 03:54:41;;;;;;;;;;;9.20;82.90;;;;;;5026749;28;20025;-69
2021/05/26 03:57:07;;;;;;;1.50;0.80;;;9.60;81.50;;;;;;5027155;28;19909;-69
2021/05/26 03:59:33;;;;;;;3.78;0.70;;;9.90;79.40;;;;;;5027087;28;20039;-68
2021/05/26 04:01:59;;;;;;;;;;;10.20;78.10;;;;;;5027023;28;20029;-68
2021/05/26 04:04:24;;;;;;;3.13;1.20;;;10.50;76.80;;;;;;5026725;28;19912;-68
2021/05/26 04:06:50;;;;;;;;;;;10.80;76.30;;;;;;5026437;28;20044;-68
2021/05/26 04:09:17;;;;;;;4.25;0.50;;;11.20;74.10;;;;;;5026071;28;19920;-68
2021/05/26 04:11:43;;;;;;;1.90;0.60;;;11.40;72.70;;;;;;5026718;28;20044;-68
2021/05/26 04:14:08;;;;;;;;;;;11.60;72.80;;;;;;5027371;28;20034;-68
2021/05/26 04:16:34;;;;;;;4.43;0.45;;;11.70;72.80;;;;;;5026672;28;19909;-68
2021/05/26 04:19:00;;;;;;;;;;;11.70;72.80;;;;;;5025455;28;20018;-67
2021/05/26 04:21:26;;;;;;;1.92;0.45;;;11.90;71.40;;;;;;5026661;28;19909;-68
2021/05/26 04:23:51;;;;;;;;;;;12.20;71.20;;;;;;5026302;28;20121;-68
2021/05/26 04:26:17;;;;;;;1.20;0.50;;;12.50;70.20;;;;;;5025359;28;19909;-68
2021/05/26 04:28:44;;;;;;;;;;;12.70;69.40;;;;;;5025998;28;20573;-67
2021/05/26 04:31:12;;;;;;;1.60;0.30;;;12.80;68.10;;;;;;5026537;28;20447;-67
2021/05/26 04:33:38;;;;;;;1.95;0.50;;;12.90;66.90;;;;;;5024809;28;20742;-68
2021/05/26 04:36:05;;;;;;;2.45;0.40;;;12.90;67.30;;;;;;5026577;28;20363;-68
2021/05/26 04:38:30;;;;;;;1.77;0.40;;;13.00;68.20;;;;;;5025964;28;20482;-68
2021/05/26 04:40:56;;;;;;;;;;;13.10;67.90;;;;;;5026321;28;20051;-68
2021/05/26 04:43:21;;;;;;;3.42;0.40;;;13.10;68.10;;;;;;5026245;28;20437;-68
2021/05/26 04:45:47;;;;;;;;;;;13.20;68.20;;;;;;5026700;28;20026;-68
2021/05/26 04:48:13;;;;;;;4.97;1.02;;;13.30;69.00;;;;;;5026142;28;19905;-67
2021/05/26 04:50:38;;;;;;;;;;;13.40;69.00;;;;;;5024829;28;20061;-67
2021/05/26 04:53:04;;;;;;;3.80;0.70;;;13.50;67.70;;;;;;5025313;28;20360;-68
2021/05/26 04:55:30;;;;;;;;;;;13.70;67.70;;;;;;5025390;28;20041;-68
2021/05/26 04:58:05;;;;;;;6.03;0.90;;;13.90;63.40;;;;;;5025794;28;19905;-68
2021/05/26 05:00:31;;;;;;;5.43;0.73;;;14.20;62.20;;;;;;5025713;28;20028;-68
2021/05/26 05:02:57;;;;;;;6.22;0.60;;;14.50;61.80;;;;;;5025836;28;20268;-68
2021/05/26 05:05:23;;;;;;;;;;;14.60;62.20;;;;;;5026648;28;20036;-69
2021/05/26 05:07:49;;;;;;;2.95;0.50;;;14.90;60.60;;;;;;5024998;28;19913;-68
2021/05/26 05:10:15;;;;;;;;;;;14.90;61.90;;;;;;5026533;28;20042;-66
2021/05/26 05:12:41;;;;;;;4.40;0.70;;;15.00;61.90;;;;;;5024002;28;19905;-68
2021/05/26 05:15:08;;;;;;;2.15;0.70;;;15.20;62.50;;;;;;5025932;28;20029;-69
2021/05/26 05:17:33;;;;;;;3.78;0.70;;;15.50;62.00;;;;;;5025700;28;20057;-68
2021/05/26 05:19:59;;;;;;;3.63;0.68;;;15.50;61.80;;;;;;5029410;28;20064;-68
2021/05/26 05:22:25;;;;;;;3.05;0.93;;;15.60;60.30;;;;;;5029189;28;20478;-68
2021/05/26 05:24:51;;;;;;;3.40;0.80;;;15.70;61.10;;;;;;5029714;28;20079;-67
2021/05/26 05:27:16;;;;;;;3.30;0.55;;;15.70;60.70;;;;;;5029526;28;20112;-68
2021/05/26 05:29:42;;;;;;;;;;;15.80;59.70;;;;;;5030103;28;20054;-67
2021/05/26 05:32:08;;;;;;;2.58;0.40;;;15.90;59.50;;;;;;5029220;28;19913;-68
2021/05/26 05:34:33;;;;;;;;;;;16.10;58.40;;;;;;5030226;28;20460;-68
2021/05/26 05:36:59;;;;;;;4.97;0.40;;;16.30;56.40;;;;;;5029590;28;19938;-69
2021/05/26 05:39:24;;;;;;;4.70;0.63;;;16.60;57.20;;;;;;5029236;28;20025;-68
2021/05/26 05:41:50;;;;;;;4.45;0.50;;;17.00;55.40;;;;;;5029522;28;20117;-68
2021/05/26 05:44:16;;;;;;;1.05;0.40;;;17.50;54.80;;;;;;5029676;28;20033;-68
2021/05/26 05:46:42;;;;;;;6.53;0.80;;;18.10;53.50;;;;;;5029095;28;20033;-68
2021/05/26 05:49:07;;;;;;;3.22;0.50;;;18.90;51.50;;;;;;5029623;28;20475;-68
2021/05/26 05:51:33;;;;;;;2.38;0.63;;;20.20;48.20;;;;;;5029003;28;20042;-68
2021/05/26 05:53:59;;;;;;;1.90;0.80;;;21.40;44.60;;;;;;5028871;28;20100;-69
2021/05/26 05:56:24;;;;;;;8.80;0.70;;;22.50;41.10;;;;;;5029503;28;20064;-69
2021/05/26 05:58:50;;;;;;;1.25;0.60;;;23.40;38.70;;;;;;5028882;28;20108;-69
2021/05/26 06:01:15;;;;;;;4.18;1.20;;;24.30;37.30;;;;;;5029201;28;20041;-69
2021/05/26 06:03:41;;;;;;;5.15;0.57;;;25.00;35.20;;;;;;5029146;28;20418;-67
2021/05/26 06:06:08;;;;;;;2.15;0.70;;;25.80;33.90;;;;;;5028732;28;20452;-67
2021/05/26 06:08:35;;;;;;;2.30;0.70;;;26.40;32.30;;;;;;5029016;28;20032;-67
2021/05/26 06:11:01;;;;;;;3.65;0.82;;;26.90;30.70;;;;;;5027556;28;20042;-66
2021/05/26 06:13:27;;;;;;;2.55;0.70;;;27.70;29.90;;;;;;5028677;28;20067;-67
2021/05/26 06:15:53;;;;;;;5.75;0.80;;;28.50;28.90;;;;;;5028584;28;20028;-66
2021/05/26 06:18:19;;;;;;;3.25;0.70;;;28.50;29.00;;;;;;5027749;28;20041;-67
2021/05/26 06:20:44;;;;;;;7.60;0.88;;;28.90;27.80;;;;;;5028820;28;20057;-66
2021/05/26 06:23:10;;;;;;;3.53;0.80;;;28.80;28.80;;;;;;5027796;28;20401;-67
2021/05/26 06:25:36;;;;;;;2.28;0.90;;;28.80;27.80;;;;;;5028743;28;20397;-67
2021/05/26 06:28:01;;;;;;;3.92;1.08;;;28.90;27.80;;;;;;5028333;28;20056;-67
2021/05/26 06:30:27;;;;;;;5.93;1.10;;;28.90;28.00;;;;;;5027626;28;20038;-67
2021/05/26 06:32:59;;;;;;;6.47;1.15;;;29.70;27.60;;;;;;5028460;28;20106;-67
2021/05/26 06:35:24;;;;;;;7.80;1.25;;;30.10;27.40;;;;;;5028581;28;20129;-66
2021/05/26 06:37:50;;;;;;;4.00;1.02;;;29.20;28.30;;;;;;5027990;28;20449;-66
2021/05/26 06:40:16;;;;;;;6.47;1.35;;;28.60;29.40;;;;;;5028605;28;20034;-66
2021/05/26 06:42:42;;;;;;;2.63;1.13;;;28.80;28.80;;;;;;5028004;28;20027;-66
2021/05/26 06:45:08;;;;;;;3.40;1.15;;;28.70;28.50;;;;;;5028691;28;20029;-67
2021/05/26 06:47:34;;;;;;;2.30;0.80;;;28.50;29.30;;;;;;5027824;28;20028;-67
2021/05/26 06:50:01;;;;;;;7.22;0.90;;;28.30;29.10;;;;;;5028056;28;20549;-66
2021/05/26 06:52:26;;;;;;;3.90;1.13;;;28.40;29.40;;;;;;5026524;28;20033;-67
2021/05/26 06:54:52;;;;;;;2.88;1.10;;;28.90;28.70;;;;;;5027867;28;20449;-68
2021/05/26 06:57:18;;;;;;;7.63;1.30;;;28.80;28.70;;;;;;5028176;28;20043;-66
2021/05/26 06:59:44;;;;;;;3.28;1.10;;;28.70;28.70;;;;;;5028268;28;20085;-67
2021/05/26 07:02:10;;;;;;;7.45;1.10;;;28.60;29.10;;;;;;5027573;28;20123;-65
2021/05/26 07:04:36;;;;;;;6.43;1.25;;;28.70;28.70;;;;;;5028435;28;20021;-66
2021/05/26 07:07:02;;;;;;;3.67;1.05;;;28.50;28.70;;;;;;5027754;28;20033;-67
2021/05/26 07:09:27;;;;;;;3.95;1.02;;;29.20;28.90;;;;;;5027981;28;20042;-67
2021/05/26 07:11:53;;;;;;;2.45;0.70;;;29.00;28.70;;;;;;5027832;28;20144;-66
2021/05/26 07:14:19;;;;;;;5.55;1.08;;;29.10;28.90;;;;;;5027593;28;20343;-67
2021/05/26 07:16:44;;;;;;;4.82;1.45;;;28.80;28.60;;;;;;5027751;28;20064;-67
2021/05/26 07:19:10;;;;;;;5.55;1.42;;;28.60;29.30;;;;;;5027406;28;20664;-66
2021/05/26 07:21:36;;;;;;;3.45;1.17;;;28.70;28.40;;;;;;5027777;28;20021;-66
2021/05/26 07:24:02;;;;;;;5.43;1.10;;;28.90;27.80;;;;;;5027527;28;20111;-66
2021/05/26 07:26:27;;;;;;;5.00;1.27;;;28.40;28.20;;;;;;5027683;28;20029;-66
2021/05/26 07:28:53;;;;;;;5.82;1.17;;;28.30;28.20;;;;;;5026050;28;20948;-66
2021/05/26 07:31:19;;;;;;;2.85;0.85;;;27.70;29.60;;;;;;5027029;28;20041;-66
2021/05/26 07:33:45;;;;;;;2.47;1.00;;;27.80;29.50;;;;;;5027578;28;20021;-66
2021/05/26 07:36:12;;;;;;;24.45;1.45;;;28.20;29.10;;;;;;5027160;28;20546;-67
2021/05/26 07:38:38;;;;;;;2.58;0.80;;;28.20;29.30;;;;;;5027409;28;20041;-66
2021/05/26 07:41:04;;;;;;;3.80;0.80;;;28.50;28.80;;;;;;5027127;28;20056;-67
2021/05/26 07:43:32;;;;;;;5.88;0.85;;;28.40;29.00;;;;;;5027230;28;20017;-67
2021/05/26 07:45:58;;;;;;;4.57;0.80;;;28.80;28.10;;;;;;5027070;28;20030;-66
2021/05/26 07:48:24;;;;;;;2.40;0.85;;;28.90;28.00;;;;;;5027485;28;20187;-67
2021/05/26 07:50:50;;;;;;;3.50;1.00;;;28.40;28.40;;;;;;5026662;28;20516;-67
2021/05/26 07:53:16;;;;;;;2.42;1.02;;;28.50;28.30;;;;;;5027146;28;20034;-67
2021/05/26 07:55:41;;;;;;;6.03;1.20;;;27.90;28.20;;;;;;5027218;28;20041;-66
2021/05/26 07:58:07;;;;;;;2.80;0.80;;;27.80;29.60;;;;;;5027106;28;20033;-67
2021/05/26 08:00:33;;;;;;;1.33;0.70;;;27.90;29.10;;;;;;5026987;28;20520;-67
2021/05/26 08:02:58;;;;;;;1.83;0.70;;;28.40;28.00;;;;;;5026652;28;20048;-66
2021/05/26 08:05:24;;;;;;;1.73;0.60;;;28.70;28.40;;;;;;5025167;28;20040;-67
2021/05/26 08:07:51;;;;;;;4.82;0.70;;;28.70;28.70;;;;;;5026834;28;20025;-67
2021/05/26 08:10:17;;;;;;;8.05;0.98;;;28.50;27.50;;;;;;5026469;28;20418;-67
2021/05/26 08:12:43;;;;;;;3.60;0.60;;;28.20;27.60;;;;;;5026709;28;20465;-67
2021/05/26 08:15:10;;;;;;;2.75;1.00;;;28.20;27.60;;;;;;5026808;28;20486;-67
2021/05/26 08:17:36;;;;;;;5.10;0.80;;;27.90;28.40;;;;;;5026438;28;20029;-67
2021/05/26 08:20:05;;;;;;;3.95;0.70;;;28.20;28.60;;;;;;5026522;28;20029;-67
2021/05/26 08:22:31;;;;;;;8.75;2.25;;;28.40;27.40;;;;;;5026558;28;20025;-67
2021/05/26 08:24:57;;;;;;;2.67;0.73;;;28.30;29.10;;;;;;5026257;28;20449;-66
2021/05/26 08:27:23;;;;;;;3.90;0.98;;;28.50;28.50;;;;;;5026547;28;20087;-67
2021/05/26 08:29:49;;;;;;;5.68;1.27;;;28.80;27.80;;;;;;5026059;28;20049;-67
2021/05/26 08:32:15;;;;;;;3.67;1.00;;;28.70;28.10;;;;;;5026510;28;20038;-67
2021/05/26 08:34:41;;;;;;;1.83;0.70;;;28.70;27.60;;;;;;5026007;28;20022;-67
2021/05/26 08:37:07;;;;;;;4.47;1.38;;;28.50;27.40;;;;;;5026141;28;20459;-67
2021/05/26 08:39:35;;;;;;;8.43;1.20;;;28.70;27.20;;;;;;5026840;28;20052;-67
2021/05/26 08:42:02;;;;;;;4.63;1.08;;;29.00;26.50;;;;;;5026070;28;20029;-67
2021/05/26 08:44:28;;;;;;;3.10;0.60;;;28.70;28.00;;;;;;5026600;28;20486;-67
2021/05/26 08:46:54;;;;;;;4.43;1.20;;;28.40;27.00;;;;;;5026279;28;20029;-67
2021/05/26 08:49:21;;;;;;;2.78;1.10;;;28.50;27.20;;;;;;5025717;28;20052;-67
2021/05/26 08:51:47;;;;;;;4.28;1.10;;;28.40;27.50;;;;;;5026062;28;20502;-67
2021/05/26 08:54:13;;;;;;;3.20;0.88;;;28.10;27.40;;;;;;5025411;28;20032;-67
2021/05/26 08:56:39;;;;;;;3.40;0.68;;;28.40;27.30;;;;;;5026295;28;20092;-67
2021/05/26 08:59:05;;;;;;;5.45;0.98;;;28.70;27.50;;;;;;5026302;28;20025;-68
2021/05/26 09:01:30;;;;;;;3.42;0.80;;;28.90;27.40;;;;;;5025724;28;20039;-67
2021/05/26 09:04:16;;;;;;;3.03;0.85;;;28.80;27.90;;;;;;5025926;28;20221;-67
2021/05/26 09:06:48;;;;;;;;;;;29.10;27.80;;;;;;5025821;28;20030;-67
2021/05/26 09:09:14;;;;;;;2.50;0.85;;;29.30;27.00;;;;;;5025783;28;19909;-66
2021/05/26 09:11:43;;;;;;;3.83;0.70;;;29.70;27.20;;;;;;5025880;28;20032;-67
2021/05/26 09:14:13;;;;;;;3.97;0.65;;;29.80;25.70;;;;;;5026051;28;20030;-68
2021/05/26 09:16:39;;;;;;;1.50;0.60;;;29.60;26.50;;;;;;5025676;28;20025;-67
2021/05/26 09:19:06;;;;;;;3.53;0.80;;;28.90;27.00;;;;;;5025965;28;20036;-67
2021/05/26 09:21:45;;;;;;;8.95;0.90;;;29.10;27.00;;;;;;5025825;28;20145;-67
2021/05/26 09:24:20;;;;;;;3.40;0.60;;;30.00;25.70;;;;;;5026204;28;20018;-67
2021/05/26 09:26:54;;;;;;;11.90;0.77;;;29.70;26.40;;;;;;5024680;28;20030;-66
2021/05/26 09:29:27;;;;;;;11.60;0.65;;;29.50;26.60;;;;;;5025770;28;20042;-67
2021/05/26 09:32:20;;;;;;;1.55;0.50;;;29.80;26.00;;;;;;5025903;28;20146;-67
2021/05/26 09:34:53;;;;;;;2.38;0.80;;;29.90;26.30;;;;;;5025083;28;20502;-67
2021/05/26 09:37:23;;;;;;;2.30;0.85;;;30.10;26.40;;;;;;5024785;28;20025;-67
2021/05/26 09:39:50;;;;;;;3.17;0.95;;;30.10;26.50;;;;;;5026044;28;20037;-66
2021/05/26 09:42:32;;;;;;;3.72;0.90;;;29.70;26.20;;;;;;5025557;28;20137;-67
2021/05/26 09:45:19;;;;;;;4.78;0.85;;;29.70;26.70;;;;;;5025724;28;20022;-67
2021/05/26 09:47:56;;;;;;;2.67;0.80;;;29.50;26.00;;;;;;5025817;28;20041;-67
2021/05/26 09:50:29;;;;;;;3.85;1.58;;;29.30;26.70;;;;;;5025308;28;20026;-67
2021/05/26 09:53:04;;;;;;;2.67;0.65;;;29.40;25.80;;;;;;5025014;28;20405;-66
2021/05/26 09:55:35;;;;;;;4.28;0.65;;;29.30;27.10;;;;;;5025288;28;20021;-67
2021/05/26 09:58:01;;;;;;;2.13;0.50;;;29.20;27.40;;;;;;5025769;28;20039;-66
2021/05/26 10:00:28;;;;;;;3.10;0.60;;;29.00;26.80;;;;;;5025670;28;20053;-67
2021/05/26 10:02:55;;;;;;;5.80;0.85;;;28.50;27.40;;;;;;5024236;28;20592;-69
2021/05/26 10:05:21;;;;;;;4.70;0.60;;;27.90;27.90;;;;;;5025559;28;20025;-68
2021/05/26 10:07:58;;;;;;;4.43;0.68;;;27.10;27.50;;;;;;5029165;28;20056;-68
2021/05/26 10:10:27;;;;;;;2.50;0.55;;;26.50;30.10;;;;;;5029064;28;20037;-67
2021/05/26 10:13:03;;;;;;;1.60;0.50;;;26.00;29.50;;;;;;5027366;28;20124;-67
2021/05/26 10:15:29;;;;;;;2.63;0.50;;;25.80;30.30;;;;;;5027633;28;20025;-67
2021/05/26 10:17:57;;;;;;;3.25;0.50;;;25.60;30.80;;;;;;5028558;28;20123;-66
2021/05/26 10:20:25;;;;;;;2.85;0.40;;;25.30;31.70;;;;;;5028723;28;20179;-67
2021/05/26 10:22:53;;;;;;;1.40;0.40;;;25.10;32.10;;;;;;5028498;28;20048;-67
2021/05/26 10:25:20;;;;;;;1.60;0.50;;;25.00;30.70;;;;;;5028578;28;20025;-66
2021/05/26 10:27:53;;;;;;;2.03;0.60;;;24.70;32.30;;;;;;5028583;28;20034;-67
2021/05/26 10:30:24;;;;;;;1.98;0.70;;;24.20;31.10;;;;;;5027632;28;20045;-67
2021/05/26 10:33:01;;;;;;;4.78;0.50;;;23.70;33.80;;;;;;5028545;28;20021;-66
2021/05/26 10:35:28;;;;;;;1.35;0.70;;;23.50;34.40;;;;;;5027926;28;20080;-67
2021/05/26 10:38:03;;;;;;;2.45;0.98;;;23.50;35.10;;;;;;5026964;28;20053;-67
2021/05/26 10:40:32;;;;;;;2.38;0.50;;;23.60;34.80;;;;;;5028653;28;20029;-66
2021/05/26 10:43:16;;;;;;;1.73;0.45;;;23.50;34.70;;;;;;5028021;28;20049;-67
2021/05/26 10:45:43;;;;;;;5.95;0.50;;;23.20;34.90;;;;;;5028375;28;20494;-67
2021/05/26 10:48:09;;;;;;;3.20;0.50;;;23.00;35.80;;;;;;5028336;28;20744;-67
2021/05/26 10:50:45;;;;;;;2.42;0.52;;;23.00;35.60;;;;;;5028347;28;20504;-67
2021/05/26 10:53:10;;;;;;;1.85;0.40;;;23.00;35.80;;;;;;5028432;28;20152;-67
2021/05/26 10:55:38;;;;;;;2.40;0.40;;;22.80;33.10;;;;;;5028036;28;20451;-66
2021/05/26 10:58:31;;;;;;;4.63;0.50;;;22.60;37.20;;;;;;5028045;28;20026;-67
2021/05/26 11:00:57;;;;;;;2.00;0.50;;;22.50;37.30;;;;;;5028200;28;20075;-66
2021/05/26 11:03:28;;;;;;;4.55;0.60;;;22.50;36.30;;;;;;5026693;28;20033;-66
2021/05/26 11:06:04;;;;;;;0.88;0.40;;;22.60;34.60;;;;;;5026638;28;20045;-66
2021/05/26 11:08:41;;;;;;;1.60;0.43;;;22.30;35.90;;;;;;5027617;28;20482;-67
2021/05/26 11:11:22;;;;;;;6.90;0.70;;;22.20;35.80;;;;;;5026735;28;20430;-67
2021/05/26 11:14:11;;;;;;;1.92;0.50;;;22.10;37.10;;;;;;5027528;28;20022;-67
2021/05/26 11:16:39;;;;;;;1.38;0.65;;;22.20;39.40;;;;;;5027096;28;20037;-67
2021/05/26 11:19:13;;;;;;;2.45;0.40;;;22.30;38.10;;;;;;5026233;28;20025;-67
2021/05/26 11:21:39;;;;;;;2.40;0.50;;;22.40;38.40;;;;;;5026444;28;20500;-67
2021/05/26 11:24:06;;;;;;;1.73;0.50;;;22.50;39.30;;;;;;5027524;28;20108;-67
2021/05/26 11:26:32;;;;;;;2.92;0.40;;;22.60;37.50;;;;;;5027658;28;20112;-67
2021/05/26 11:28:58;;;;;;;3.85;0.40;;;22.60;37.90;;;;;;5027414;28;20049;-66
2021/05/26 11:31:23;;;;;;;1.63;0.45;;;22.70;38.00;;;;;;5027068;28;20060;-67
2021/05/26 11:33:59;;;;;;;1.35;0.52;;;22.70;36.50;;;;;;5027157;28;20756;-67
2021/05/26 11:36:44;;;;;;;1.05;0.30;;;22.70;36.80;;;;;;5027334;28;20064;-67
2021/05/26 11:39:30;;;;;;;1.10;0.30;;;22.70;36.10;;;;;;5027544;28;20423;-67
2021/05/26 11:42:12;;;;;;;2.95;0.65;;;22.40;37.00;;;;;;5027149;28;20025;-67
2021/05/26 11:44:52;;;;;;;2.92;0.65;;;22.40;37.30;;;;;;5026920;28;20560;-65
2021/05/26 11:47:48;;;;;;;1.63;0.30;;;22.40;35.70;;;;;;5026818;28;20029;-67
2021/05/26 11:50:14;;;;;;;1.67;0.30;;;22.10;36.30;;;;;;5032731;28;20171;-66
2021/05/26 11:52:51;;;;;;;0.90;0.32;;;22.00;37.90;;;;;;5038628;28;20545;-67
2021/05/26 11:55:22;;;;;;;8.02;0.50;;;22.10;36.30;;;;;;5046795;28;20417;-68
2021/05/26 11:57:50;;;;;;;1.05;0.40;;;21.90;36.90;;;;;;5045708;28;20028;-67
2021/05/26 12:00:23;;;;;;;1.52;0.30;;;21.90;37.40;;;;;;5045116;28;20512;-66
2021/05/26 12:02:53;;;;;;;4.05;0.45;;;21.90;38.10;;;;;;5044681;28;20025;-67
2021/05/26 12:05:38;;;;;;;2.88;0.30;;;22.00;36.70;;;;;;5046782;28;20025;-67
2021/05/26 12:08:12;;;;;;;0.90;0.40;;;22.10;38.80;;;;;;5046620;28;20497;-67
2021/05/26 12:10:38;;;;;;;0.82;0.40;;;22.20;38.00;;;;;;5046623;28;20086;-66
2021/05/26 12:13:03;;;;;;;2.15;0.47;;;22.20;37.80;;;;;;5036812;28;20451;-66
2021/05/26 12:15:29;;;;;;;6.07;0.55;;;22.30;39.00;;;;;;5034056;28;20044;-67
2021/05/26 12:17:56;;;;;;;1.52;0.40;;;22.20;38.40;;;;;;5035902;28;20060;-67
2021/05/26 12:20:22;;;;;;;4.40;0.50;;;22.30;39.10;;;;;;5039172;28;20166;-67
2021/05/26 12:22:50;;;;;;;2.15;0.30;;;22.50;37.60;;;;;;5045770;28;20606;-67
2021/05/26 12:25:16;;;;;;;3.83;0.68;;;22.50;36.80;;;;;;5046530;28;20631;-67
2021/05/26 12:27:48;;;;;;;3.38;0.60;;;22.50;36.50;;;;;;5045936;28;20098;-66
2021/05/26 12:30:27;;;;;;;1.98;0.40;;;22.40;35.10;;;;;;5046274;28;20031;-67
2021/05/26 12:32:54;;;;;;;1.70;0.40;;;22.00;35.10;;;;;;5045896;28;20036;-67
2021/05/26 12:35:21;;;;;;;1.88;0.40;;;21.90;37.40;;;;;;5046717;28;20051;-67
2021/05/26 12:37:54;;;;;;;1.42;0.90;;;21.80;37.80;;;;;;5046263;28;20514;-66
2021/05/26 12:40:26;;;;;;;2.28;0.45;;;21.90;38.10;;;;;;5044778;28;20033;-66
2021/05/26 12:42:53;;;;;;;2.15;0.40;;;22.10;38.40;;;;;;5046038;28;20021;-67
2021/05/26 12:45:20;;;;;;;1.83;0.40;;;22.20;39.00;;;;;;5045726;28;20486;-66
2021/05/26 12:47:47;;;;;;;2.13;0.70;;;22.30;39.10;;;;;;5038764;28;20025;-67
2021/05/26 12:50:19;;;;;;;3.40;0.50;;;22.40;38.40;;;;;;5028725;28;20079;-67
2021/05/26 12:52:49;;;;;;;2.22;0.60;;;22.40;35.70;;;;;;5025853;28;20014;-66
2021/05/26 12:55:15;;;;;;;2.13;0.40;;;22.20;36.20;;;;;;5020141;28;20040;-67
2021/05/26 12:57:42;;;;;;;0.73;0.30;;;22.20;38.10;;;;;;5025541;28;20025;-66
2021/05/26 13:00:11;;;;;;;1.73;0.40;;;22.20;37.40;;;;;;5025894;28;20055;-66
2021/05/26 13:02:43;;;;;;;3.65;0.40;;;22.20;37.70;;;;;;5025790;28;20264;-66